Time;durP1;ratioP1;P1;durP2;ratioP2;P2;SDS_P1;SDS_P2;PMS_P1;PMS_P2;Temp;Humidity;BMP_temperature;BMP_pressure;BME280_temperature;BME280_humidity;BME280_pressure;Samples;Min_cycle;Max_cycle;Signal;HPM_P1;HPM_P2
2021/06/30 00:02:05;;;;;;;;;;;12.60;99.90;;;;;;5072956;28;19916;-69
2021/06/30 00:04:32;;;;;;;;;;;12.60;99.90;;;;;;5071586;28;19912;-69
2021/06/30 00:06:59;;;;;;;;;;;12.70;99.90;;;;;;5071900;28;20271;-70
2021/06/30 00:09:25;;;;;;;;;;;12.70;99.90;;;;;;5072774;28;19908;-70
2021/06/30 00:11:52;;;;;;;;;;;12.70;99.90;;;;;;5072644;28;20283;-70
2021/06/30 00:14:19;;;;;;;;;;;12.70;99.90;;;;;;5071270;28;19931;-68
2021/06/30 00:16:47;;;;;;;;;;;12.70;99.90;;;;;;5071201;28;20373;-72
2021/06/30 00:19:14;;;;;;;;;;;12.80;99.90;;;;;;5072500;28;19915;-68
2021/06/30 00:21:41;;;;;;;;;;;12.80;99.90;;;;;;5073340;28;20378;-69
2021/06/30 00:24:08;;;;;;;;;;;12.70;99.90;;;;;;5076231;28;20010;-70
2021/06/30 00:26:36;;;;;;;;;;;12.80;99.90;;;;;;5076266;28;19970;-70
2021/06/30 00:29:04;;;;;;;;;;;12.80;99.90;;;;;;5076118;28;20378;-68
2021/06/30 00:31:31;;;;;;;;;;;12.70;99.90;;;;;;5076121;28;19995;-70
2021/06/30 00:34:02;;;;;;;;;;;12.80;99.90;;;;;;5076242;28;19915;-70
2021/06/30 00:36:32;;;;;;;;;;;12.80;99.90;;;;;;5076344;28;19916;-69
2021/06/30 00:38:59;;;;;;;;;;;12.90;99.90;;;;;;5075881;28;19962;-70
2021/06/30 00:41:26;;;;;;;;;;;13.00;99.90;;;;;;5076110;28;20389;-70
2021/06/30 00:43:53;;;;;;;;;;;13.00;99.90;;;;;;5075833;28;19908;-70
2021/06/30 00:46:27;;;;;;;;;;;13.00;99.90;;;;;;5076278;28;20313;-71
2021/06/30 00:48:53;;;;;;;;;;;13.10;99.90;;;;;;5075820;28;20002;-71
2021/06/30 00:51:20;;;;;;;;;;;13.20;99.90;;;;;;5075664;28;19954;-69
2021/06/30 00:53:47;;;;;;;;;;;13.20;99.90;;;;;;5075529;28;19912;-68
2021/06/30 00:56:14;;;;;;;;;;;13.30;99.90;;;;;;5075875;28;19908;-69
2021/06/30 00:58:41;;;;;;;;;;;13.40;99.90;;;;;;5074405;28;19908;-71
2021/06/30 01:01:07;;;;;;;;;;;13.40;99.90;;;;;;5074786;28;20391;-69
2021/06/30 01:03:34;;;;;;;;;;;13.30;99.90;;;;;;5075377;28;19912;-68
2021/06/30 01:06:01;;;;;;;;;;;13.40;99.90;;;;;;5075508;28;20025;-68
2021/06/30 01:08:28;;;;;;;;;;;13.40;99.90;;;;;;5075910;28;19962;-68
2021/06/30 01:10:55;;;;;;;;;;;13.60;99.90;;;;;;5075756;28;20359;-70
2021/06/30 01:13:21;;;;;;;;;;;13.70;99.90;;;;;;5075628;28;20355;-72
2021/06/30 01:15:58;;;;;;;;;;;14.10;99.90;;;;;;5075503;28;20290;-72
2021/06/30 01:18:26;;;;;;;;;;;14.00;99.90;;;;;;5075353;28;19908;-68
2021/06/30 01:20:54;;;;;;;;;;;14.10;99.90;;;;;;5075247;28;19912;-68
2021/06/30 01:23:20;;;;;;;;;;;14.20;99.90;;;;;;5075130;28;20342;-72
2021/06/30 01:25:48;;;;;;;;;;;14.10;99.90;;;;;;5074838;28;19919;-68
2021/06/30 01:28:15;;;;;;;;;;;14.10;99.90;;;;;;5074987;28;19909;-72
2021/06/30 01:30:42;;;;;;;;;;;14.00;99.90;;;;;;5074964;28;19908;-70
2021/06/30 01:33:09;;;;;;;;;;;14.00;99.90;;;;;;5073827;28;20000;-68
2021/06/30 01:35:36;;;;;;;;;;;14.00;99.90;;;;;;5074718;28;19909;-72
2021/06/30 01:38:03;;;;;;;;;;;14.00;99.90;;;;;;5074731;28;19913;-69
2021/06/30 01:40:30;;;;;;;;;;;14.00;99.90;;;;;;5074722;28;19913;-69
2021/06/30 01:43:03;;;;;;;;;;;14.00;99.90;;;;;;5074633;28;19922;-72
2021/06/30 01:45:30;;;;;;;;;;;14.00;99.90;;;;;;5074590;28;19908;-70
2021/06/30 01:47:57;;;;;;;;;;;14.00;99.90;;;;;;5074536;28;20055;-70
2021/06/30 01:50:23;;;;;;;;;;;14.00;99.90;;;;;;5074495;28;19908;-70
2021/06/30 01:52:50;;;;;;;;;;;14.00;99.90;;;;;;5074542;28;19908;-72
2021/06/30 01:55:16;;;;;;;;;;;14.10;99.90;;;;;;5074492;28;19938;-70
2021/06/30 01:57:45;;;;;;;;;;;14.20;99.90;;;;;;5074001;28;19908;-70
2021/06/30 02:00:13;;;;;;;;;;;14.30;99.90;;;;;;5074423;28;19995;-69
2021/06/30 02:02:40;;;;;;;;;;;14.30;99.90;;;;;;5067015;28;20286;-71
2021/06/30 02:05:12;;;;;;;;;;;14.40;99.90;;;;;;5059143;28;20275;-71
2021/06/30 02:07:39;;;;;;;;;;;14.40;99.90;;;;;;5052038;28;19913;-70
2021/06/30 02:10:10;;;;;;;;;;;14.50;99.90;;;;;;5053427;28;19992;-72
2021/06/30 02:12:37;;;;;;;;;;;14.60;99.90;;;;;;5053314;28;20349;-72
2021/06/30 02:15:08;;;;;;;;;;;14.60;99.90;;;;;;5053176;28;20240;-70
2021/06/30 02:17:35;;;;;;;;;;;14.70;99.90;;;;;;5053171;28;20031;-73
2021/06/30 02:20:01;;;;;;;;;;;14.80;99.90;;;;;;5062875;28;20351;-72
2021/06/30 02:22:28;;;;;;;;;;;14.80;99.90;;;;;;5073748;28;20007;-70
2021/06/30 02:24:58;;;;;;;;;;;14.80;99.90;;;;;;5073993;28;20408;-71
2021/06/30 02:27:25;;;;;;;;;;;14.90;99.90;;;;;;5073607;28;19944;-73
2021/06/30 02:29:52;;;;;;;;;;;14.90;99.90;;;;;;5073555;28;20317;-70
2021/06/30 02:32:18;;;;;;;;;;;14.90;99.90;;;;;;5073621;28;19966;-73
2021/06/30 02:34:45;;;;;;;;;;;14.90;99.90;;;;;;5074604;28;20378;-73
2021/06/30 02:37:12;;;;;;;;;;;14.80;99.90;;;;;;5074634;28;20248;-72
2021/06/30 02:39:38;;;;;;;;;;;14.80;99.90;;;;;;5074841;28;19915;-73
2021/06/30 02:42:05;;;;;;;;;;;14.80;99.90;;;;;;5075151;28;19923;-72
2021/06/30 02:44:32;;;;;;;;;;;15.00;99.90;;;;;;5074833;28;20050;-72
2021/06/30 02:46:59;;;;;;;;;;;15.10;99.90;;;;;;5074830;28;20321;-72
2021/06/30 02:49:28;;;;;;;;;;;15.20;99.90;;;;;;5074598;28;19908;-71
2021/06/30 02:51:55;;;;;;;;;;;15.20;99.90;;;;;;5074121;28;19954;-72
2021/06/30 02:54:22;;;;;;;;;;;15.10;99.90;;;;;;5074946;28;20276;-72
2021/06/30 02:56:48;;;;;;;;;;;15.10;99.90;;;;;;5074346;28;19969;-69
2021/06/30 02:59:15;;;;;;;;;;;15.20;99.90;;;;;;5073927;28;19914;-71
2021/06/30 03:01:42;;;;;;;;;;;15.20;99.90;;;;;;5073802;28;19963;-71
2021/06/30 03:04:08;;;;;;;;;;;15.30;99.90;;;;;;5073091;28;19915;-70
2021/06/30 03:06:35;;;;;;;;;;;15.20;99.90;;;;;;5073621;28;20255;-70
2021/06/30 03:09:02;;;;;;;;;;;15.40;99.90;;;;;;5073681;28;19909;-69
2021/06/30 03:11:28;;;;;;;;;;;15.40;99.90;;;;;;5073704;28;19961;-73
2021/06/30 03:13:55;;;;;;;;;;;15.40;99.90;;;;;;5073422;28;19921;-71
2021/06/30 03:16:22;;;;;;;;;;;15.30;99.90;;;;;;5073386;28;19916;-70
2021/06/30 03:18:48;;;;;;;;;;;15.40;99.90;;;;;;5073750;28;19969;-71
2021/06/30 03:21:16;;;;;;;;;;;15.40;99.90;;;;;;5073338;28;19912;-73
2021/06/30 03:23:43;;;;;;;;;;;15.50;99.90;;;;;;5073427;28;19916;-73
2021/06/30 03:26:10;;;;;;;;;;;15.50;99.90;;;;;;5072901;28;19908;-72
2021/06/30 03:28:36;;;;;;;;;;;15.50;99.90;;;;;;5072822;28;19915;-72
2021/06/30 03:31:03;;;;;;;;;;;15.50;99.90;;;;;;5071564;28;19913;-72
2021/06/30 03:33:30;;;;;;;;;;;15.50;99.90;;;;;;5072871;28;19991;-72
2021/06/30 03:35:56;;;;;;;;;;;15.60;99.90;;;;;;5072833;28;19909;-70
2021/06/30 03:38:23;;;;;;;;;;;15.60;99.90;;;;;;5072948;28;19912;-71
2021/06/30 03:40:50;;;;;;;;;;;15.60;99.90;;;;;;5073090;28;20441;-71
2021/06/30 03:43:16;;;;;;;;;;;15.60;99.90;;;;;;5073368;28;20330;-70
2021/06/30 03:45:43;;;;;;;;;;;15.60;99.90;;;;;;5073109;28;19912;-72
2021/06/30 03:48:10;;;;;;;;;;;15.50;99.90;;;;;;5073193;28;20351;-71
2021/06/30 03:50:36;;;;;;;;;;;15.50;99.90;;;;;;5071498;28;19908;-70
2021/06/30 03:53:03;;;;;;;;;;;15.40;99.90;;;;;;5072933;28;19919;-70
2021/06/30 03:55:30;;;;;;;;;;;15.30;99.90;;;;;;5071320;28;19915;-70
2021/06/30 03:57:57;;;;;;;;;;;15.20;99.90;;;;;;5076005;28;19909;-71
2021/06/30 04:00:26;;;;;;;;;;;15.00;99.90;;;;;;5076569;28;19915;-71
2021/06/30 04:02:54;;;;;;;;;;;14.90;99.90;;;;;;5076659;28;20417;-71
2021/06/30 04:05:21;;;;;;;;;;;14.90;99.90;;;;;;5076863;28;19939;-72
2021/06/30 04:07:48;;;;;;;;;;;14.80;99.90;;;;;;5076515;28;20373;-71
2021/06/30 04:10:15;;;;;;;;;;;14.80;99.90;;;;;;5076416;28;20318;-71
2021/06/30 04:12:42;;;;;;;;;;;14.80;99.90;;;;;;5076118;28;19909;-71
2021/06/30 04:15:09;;;;;;;;;;;14.70;99.90;;;;;;5074938;28;19921;-70
2021/06/30 04:17:36;;;;;;;;;;;14.70;99.90;;;;;;5076131;28;19961;-73
2021/06/30 04:20:07;;;;;;;;;;;14.60;99.90;;;;;;5076371;28;20008;-72
2021/06/30 04:22:34;;;;;;;;;;;14.60;99.90;;;;;;5076178;28;19956;-71
2021/06/30 04:25:02;;;;;;;;;;;14.60;99.90;;;;;;5076331;28;20359;-71
2021/06/30 04:27:29;;;;;;;;;;;14.70;99.90;;;;;;5076078;28;19915;-71
2021/06/30 04:29:56;;;;;;;;;;;14.70;99.90;;;;;;5076142;28;19909;-72
2021/06/30 04:32:22;;;;;;;;;;;14.70;99.90;;;;;;5075914;28;20405;-72
2021/06/30 04:34:49;;;;;;;;;;;14.80;99.90;;;;;;5075996;28;20378;-72
2021/06/30 04:37:16;;;;;;;;;;;14.80;99.90;;;;;;5075749;28;19909;-72
2021/06/30 04:39:42;;;;;;;;;;;14.80;99.90;;;;;;5075726;28;19948;-71
2021/06/30 04:42:09;;;;;;;;;;;14.90;99.90;;;;;;5075593;28;20374;-70
2021/06/30 04:44:36;;;;;;;;;;;14.80;99.90;;;;;;5076565;28;20005;-68
2021/06/30 04:47:03;;;;;;;;;;;14.80;99.90;;;;;;5076448;28;19920;-72
2021/06/30 04:49:29;;;;;;;;;;;14.90;99.90;;;;;;5075897;28;19908;-72
2021/06/30 04:51:56;;;;;;;;;;;14.80;99.90;;;;;;5075810;28;19928;-70
2021/06/30 04:54:23;;;;;;;;;;;14.80;99.90;;;;;;5075827;28;19912;-69
2021/06/30 04:56:49;;;;;;;;;;;14.80;99.90;;;;;;5075597;28;19995;-70
2021/06/30 04:59:17;;;;;;;;;;;14.90;99.90;;;;;;5075822;28;19908;-69
2021/06/30 05:01:44;;;;;;;;;;;14.90;99.90;;;;;;5074152;28;20003;-69
2021/06/30 05:04:11;;;;;;;;;;;15.00;99.90;;;;;;5075747;28;19908;-70
2021/06/30 05:06:37;;;;;;;;;;;14.90;99.90;;;;;;5075848;28;20397;-70
2021/06/30 05:09:04;;;;;;;;;;;14.80;99.90;;;;;;5075354;28;19908;-71
2021/06/30 05:11:31;;;;;;;;;;;14.80;99.90;;;;;;5075143;28;19995;-69
2021/06/30 05:13:58;;;;;;;;;;;14.80;99.90;;;;;;5075281;28;20283;-69
2021/06/30 05:16:25;;;;;;;;;;;14.80;99.90;;;;;;5075040;28;19971;-70
2021/06/30 05:18:52;;;;;;;;;;;14.70;99.90;;;;;;5075120;28;19908;-70
2021/06/30 05:21:19;;;;;;;;;;;14.70;99.90;;;;;;5075024;28;19925;-71
2021/06/30 05:23:46;;;;;;;;;;;14.70;99.90;;;;;;5074839;28;20416;-70
2021/06/30 05:26:12;;;;;;;;;;;14.70;99.90;;;;;;5074964;28;19916;-70
2021/06/30 05:28:39;;;;;;;;;;;14.70;99.90;;;;;;5075071;28;19916;-71
2021/06/30 05:31:06;;;;;;;;;;;14.70;99.90;;;;;;5074892;28;20397;-72
2021/06/30 05:33:33;;;;;;;;;;;14.80;99.90;;;;;;5074798;28;19912;-71
2021/06/30 05:36:00;;;;;;;;;;;14.70;99.90;;;;;;5074894;28;19908;-70
2021/06/30 05:38:27;;;;;;;;;;;14.80;99.90;;;;;;5074883;28;19931;-71
2021/06/30 05:40:53;;;;;;;;;;;14.80;99.90;;;;;;5074435;28;20387;-71
2021/06/30 05:43:20;;;;;;;;;;;14.80;99.90;;;;;;5074742;28;19912;-71
2021/06/30 05:45:47;;;;;;;;;;;14.70;99.90;;;;;;5074593;28;20363;-70
2021/06/30 05:48:14;;;;;;;;;;;14.70;99.90;;;;;;5074724;28;19914;-70
2021/06/30 05:50:41;;;;;;;;;;;14.70;99.90;;;;;;5074528;28;19908;-72
2021/06/30 05:53:07;;;;;;;;;;;14.70;99.90;;;;;;5074683;28;19991;-70
2021/06/30 05:55:34;;;;;;;;;;;14.70;99.90;;;;;;5072763;28;20311;-70
2021/06/30 05:58:01;;;;;;;;;;;14.80;99.90;;;;;;5074635;28;20256;-73
2021/06/30 06:00:27;;;;;;;;;;;14.70;99.90;;;;;;5074373;28;19908;-70
2021/06/30 06:02:54;;;;;;;;;;;14.70;99.90;;;;;;5074295;28;19916;-70
2021/06/30 06:05:21;;;;;;;;;;;14.70;99.90;;;;;;5074328;28;19909;-70
2021/06/30 06:07:48;;;;;;;;;;;14.70;99.90;;;;;;5072657;28;19908;-70
2021/06/30 06:10:14;;;;;;;;;;;14.70;99.90;;;;;;5074161;28;19999;-71
2021/06/30 06:12:41;;;;;;;;;;;14.70;99.90;;;;;;5073858;28;20006;-71
2021/06/30 06:15:09;;;;;;;;;;;14.80;99.90;;;;;;5073212;28;19955;-70
2021/06/30 06:17:36;;;;;;;;;;;14.80;99.90;;;;;;5073195;28;19909;-70
2021/06/30 06:20:04;;;;;;;;;;;14.80;99.90;;;;;;5072520;28;19912;-69
2021/06/30 06:22:30;;;;;;;;;;;14.80;99.90;;;;;;5073283;28;20023;-71
2021/06/30 06:24:57;;;;;;;;;;;14.70;99.90;;;;;;5073256;28;20005;-70
2021/06/30 06:27:24;;;;;;;;;;;14.70;99.90;;;;;;5073102;28;19909;-70
2021/06/30 06:29:51;;;;;;;;;;;14.70;99.90;;;;;;5072733;28;19908;-70
2021/06/30 06:32:18;;;;;;;;;;;14.70;99.90;;;;;;5072854;28;19915;-70
2021/06/30 06:34:46;;;;;;;;;;;14.70;99.90;;;;;;5073040;28;19916;-70
2021/06/30 06:37:15;;;;;;;;;;;14.70;99.90;;;;;;5072883;28;20007;-72
2021/06/30 06:39:42;;;;;;;;;;;14.70;99.90;;;;;;5072466;28;19992;-74
2021/06/30 06:42:10;;;;;;;;;;;14.70;99.90;;;;;;5072615;28;20011;-71
2021/06/30 06:44:41;;;;;;;;;;;14.70;99.90;;;;;;5072835;28;19962;-70
2021/06/30 06:47:08;;;;;;;;;;;14.70;99.90;;;;;;5072591;28;20382;-70
2021/06/30 06:49:35;;;;;;;;;;;14.70;99.90;;;;;;5072460;28;19909;-71
2021/06/30 06:52:01;;;;;;;;;;;14.70;99.90;;;;;;5072644;28;20266;-71
2021/06/30 06:54:28;;;;;;;;;;;14.70;99.90;;;;;;5072567;28;19909;-71
2021/06/30 06:56:55;;;;;;;;;;;14.70;99.90;;;;;;5072417;28;19916;-72
2021/06/30 06:59:22;;;;;;;;;;;14.70;99.90;;;;;;5072553;28;19999;-70
2021/06/30 07:01:48;;;;;;;;;;;14.70;99.90;;;;;;5073178;28;19919;-73
2021/06/30 07:04:15;;;;;;;;;;;14.70;99.90;;;;;;5073260;28;20306;-71
2021/06/30 07:06:42;;;;;;;;;;;14.70;99.90;;;;;;5073506;28;19908;-71
2021/06/30 07:09:08;;;;;;;;;;;14.70;99.90;;;;;;5072810;28;19909;-70
2021/06/30 07:11:35;;;;;;;;;;;14.70;99.90;;;;;;5072648;28;19909;-72
2021/06/30 07:14:02;;;;;;;;;;;14.60;99.90;;;;;;4946969;28;3549916;-72
2021/06/30 07:16:29;;;;;;;;;;;14.70;99.90;;;;;;5073871;28;19967;-72
2021/06/30 07:18:55;;;;;;;;;;;14.60;99.90;;;;;;5073993;28;19957;-73
2021/06/30 07:21:22;;;;;;;;;;;14.60;99.90;;;;;;5067131;28;19913;-69
2021/06/30 07:23:49;;;;;;;;;;;14.60;99.90;;;;;;5052908;28;19916;-72
2021/06/30 07:26:16;;;;;;;;;;;14.60;99.90;;;;;;5052224;28;19954;-71
2021/06/30 07:28:44;;;;;;;;;;;14.60;99.90;;;;;;5052824;28;19912;-71
2021/06/30 07:31:11;;;;;;;;;;;14.50;99.90;;;;;;5051430;28;19999;-71
2021/06/30 07:33:37;;;;;;;;;;;14.50;99.90;;;;;;5052582;28;20413;-70
2021/06/30 07:36:05;;;;;;;;;;;14.50;99.90;;;;;;5068244;28;20315;-72
2021/06/30 07:38:31;;;;;;;;;;;14.50;99.90;;;;;;5052712;28;19996;-73
2021/06/30 07:40:58;;;;;;;;;;;14.50;99.90;;;;;;5050618;28;19914;-72
2021/06/30 07:43:25;;;;;;;;;;;14.50;99.90;;;;;;5050897;28;19916;-69
2021/06/30 07:45:51;;;;;;;;;;;14.60;99.90;;;;;;5050444;28;19982;-72
2021/06/30 07:48:18;;;;;;;;;;;14.60;99.90;;;;;;5050779;28;19912;-72
2021/06/30 07:50:45;;;;;;;;;;;14.50;99.90;;;;;;5050611;28;19948;-70
2021/06/30 07:53:11;;;;;;;;;;;14.50;99.90;;;;;;5050217;28;19950;-74
2021/06/30 07:55:38;;;;;;;;;;;14.40;99.90;;;;;;5050134;28;20371;-72
2021/06/30 07:58:05;;;;;;;;;;;14.40;99.90;;;;;;5050491;28;20278;-73
2021/06/30 08:00:32;;;;;;;;;;;14.30;99.90;;;;;;5051054;28;19996;-72
2021/06/30 08:02:59;;;;;;;;;;;14.30;99.90;;;;;;5050541;28;19957;-72
2021/06/30 08:05:26;;;;;;;;;;;14.30;99.90;;;;;;5050819;28;20290;-70
2021/06/30 08:07:52;;;;;;;;;;;14.20;99.90;;;;;;5049988;28;19952;-69
2021/06/30 08:10:19;;;;;;;;;;;14.10;99.90;;;;;;5050310;28;20015;-72
2021/06/30 08:12:46;;;;;;;;;;;14.10;99.90;;;;;;5049819;28;19909;-72
2021/06/30 08:15:12;;;;;;;;;;;14.10;99.90;;;;;;5050327;28;19921;-70
2021/06/30 08:17:39;;;;;;;;;;;14.10;99.90;;;;;;5050057;28;20339;-72
2021/06/30 08:20:07;;;;;;;;;;;14.00;99.90;;;;;;5049885;28;19909;-73
2021/06/30 08:22:33;;;;;;;;;;;14.00;99.90;;;;;;5051045;28;20009;-72
2021/06/30 08:25:00;;;;;;;;;;;14.00;99.90;;;;;;5051818;28;19908;-71
2021/06/30 08:27:27;;;;;;;;;;;14.00;99.90;;;;;;5050828;28;19909;-70
2021/06/30 08:29:54;;;;;;;;;;;14.00;99.90;;;;;;5051269;28;19909;-68
2021/06/30 08:32:24;;;;;;;;;;;14.00;99.90;;;;;;5051398;28;19923;-72
2021/06/30 08:34:52;;;;;;;;;;;14.00;99.90;;;;;;5051362;28;20023;-69
2021/06/30 08:37:20;;;;;;;;;;;14.00;99.90;;;;;;5051506;28;19913;-71
2021/06/30 08:39:47;;;;;;;;;;;14.00;99.90;;;;;;5049932;28;19913;-70
2021/06/30 08:42:18;;;;;;;;;;;14.00;99.90;;;;;;5049902;28;19988;-71
2021/06/30 08:44:45;;;;;;;;;;;14.00;99.90;;;;;;5053702;28;19917;-69
2021/06/30 08:47:11;;;;;;;;;;;14.10;99.90;;;;;;5054467;28;20283;-71
2021/06/30 08:49:43;;;;;;;;;;;14.10;99.90;;;;;;5056483;28;19966;-72
2021/06/30 08:52:11;;;;;;;;;;;14.10;99.90;;;;;;5055495;28;20366;-71
2021/06/30 08:54:42;;;;;;;;;;;14.10;99.90;;;;;;5055499;28;19913;-71
2021/06/30 08:57:10;;;;;;;;;;;14.20;99.90;;;;;;5055160;28;20033;-72
2021/06/30 08:59:37;;;;;;;;;;;14.20;99.90;;;;;;5055218;28;19909;-69
2021/06/30 09:02:04;;;;;;;;;;;14.20;99.90;;;;;;5055527;28;19943;-72
2021/06/30 09:04:32;;;;;;;;;;;14.10;99.90;;;;;;5055832;28;20271;-69
2021/06/30 09:06:59;;;;;;;;;;;14.10;99.90;;;;;;5057869;28;20307;-69
2021/06/30 09:09:26;;;;;;;;;;;14.10;99.90;;;;;;5058152;28;20378;-70
2021/06/30 09:11:54;;;;;;;;;;;14.10;99.90;;;;;;5058439;28;19920;-69
2021/06/30 09:14:32;;;;;;;;;;;14.10;99.90;;;;;;5056564;28;19921;-70
2021/06/30 09:17:12;;;;;;;;;;;14.20;99.90;;;;;;5055500;28;19909;-72
2021/06/30 09:19:55;;;;;;;;;;;14.20;99.90;;;;;;5054983;28;20276;-72
2021/06/30 09:22:24;;;;;;;;;;;14.10;99.90;;;;;;5055258;28;19917;-71
2021/06/30 09:24:51;;;;;;;;;;;14.20;99.90;;;;;;5054976;28;20367;-71
2021/06/30 09:27:19;;;;;;;;;;;14.10;99.90;;;;;;5055212;28;19908;-71
2021/06/30 09:29:46;;;;;;;;;;;14.20;99.90;;;;;;5055253;28;20062;-69
2021/06/30 09:32:15;;;;;;;;;;;14.10;99.90;;;;;;5055270;28;19997;-71
2021/06/30 09:34:41;;;;;;;;;;;14.20;99.90;;;;;;5054872;28;19909;-72
2021/06/30 09:37:10;;;;;;;;;;;14.20;99.90;;;;;;5054489;28;19908;-72
2021/06/30 09:39:39;;;;;;;;;;;14.20;99.90;;;;;;5056474;28;20240;-72
2021/06/30 09:42:08;;;;;;;;;;;14.20;99.90;;;;;;5055409;28;20282;-73
2021/06/30 09:44:36;;;;;;;;;;;14.20;99.90;;;;;;5054769;28;19936;-72
2021/06/30 09:47:04;;;;;;;;;;;14.20;99.90;;;;;;5055074;28;19919;-70
2021/06/30 09:49:32;;;;;;;;;;;14.20;99.90;;;;;;5054737;28;19908;-71
2021/06/30 09:52:18;;;;;;;;;;;14.10;99.90;;;;;;5054830;28;19909;-72
2021/06/30 09:54:45;;;;;;;;;;;14.10;99.90;;;;;;5053008;28;19932;-71
2021/06/30 09:57:13;;;;;;;;;;;14.10;99.90;;;;;;5054945;28;19962;-68
2021/06/30 09:59:40;;;;;;;;;;;14.10;99.90;;;;;;5054377;28;20351;-69
2021/06/30 10:02:09;;;;;;;;;;;14.00;99.90;;;;;;5054885;28;20531;-71
2021/06/30 10:04:39;;;;;;;;;;;14.10;99.90;;;;;;5055802;28;20275;-70
2021/06/30 10:07:11;;;;;;;;;;;14.00;99.90;;;;;;5055287;28;19909;-69
2021/06/30 10:09:38;;;;;;;;;;;14.10;99.90;;;;;;5055297;28;19916;-71
2021/06/30 10:12:11;;;;;;;;;;;14.00;99.90;;;;;;5056119;28;19971;-70
2021/06/30 10:14:42;;;;;;;;;;;14.00;99.90;;;;;;5055851;28;19996;-70
2021/06/30 10:17:09;;;;;;;;;;;14.00;99.90;;;;;;5055209;28;19909;-72
2021/06/30 10:19:37;;;;;;;;;;;14.00;99.90;;;;;;5054180;28;19913;-74
2021/06/30 10:22:04;;;;;;;;;;;14.10;99.90;;;;;;5054721;28;19935;-71
2021/06/30 10:24:31;;;;;;;;;;;14.10;99.90;;;;;;5052468;28;19909;-73
2021/06/30 10:26:58;;;;;;;;;;;14.00;99.90;;;;;;5052501;28;19909;-73
2021/06/30 10:29:26;;;;;;;;;;;14.10;99.90;;;;;;5051729;28;20288;-69
2021/06/30 10:31:55;;;;;;;;;;;14.00;99.90;;;;;;5051613;28;20020;-69
2021/06/30 10:34:32;;;;;;;;;;;14.00;99.90;;;;;;5051780;28;19909;-69
2021/06/30 10:36:59;;;;;;;;;;;13.90;99.90;;;;;;5051626;28;20003;-69
2021/06/30 10:39:40;;;;;;;;;;;13.90;99.90;;;;;;5050854;28;19909;-69
2021/06/30 10:42:16;;;;;;;;;;;13.90;99.90;;;;;;5051415;28;19917;-69
2021/06/30 10:44:47;;;;;;;;;;;14.00;99.90;;;;;;5051580;28;20008;-68
2021/06/30 10:47:31;;;;;;;;;;;14.00;99.90;;;;;;5051490;28;20287;-68
2021/06/30 10:50:15;;;;;;;;;;;14.00;99.90;;;;;;5051223;28;19965;-68
2021/06/30 10:52:42;;;;;;;;;;;14.00;99.90;;;;;;5049467;28;19909;-69
2021/06/30 10:55:28;;;;;;;;;;;14.10;99.90;;;;;;5051257;28;19958;-69
2021/06/30 10:58:13;;;;;;;;;;;14.10;99.90;;;;;;5050945;28;19916;-68
2021/06/30 11:00:48;;;;;;;;;;;14.10;99.90;;;;;;5051096;28;19908;-69
2021/06/30 11:03:34;;;;;;;;;;;14.10;99.90;;;;;;5050834;28;19916;-68
2021/06/30 11:06:10;;;;;;;;;;;14.00;99.90;;;;;;5050855;28;20423;-69
2021/06/30 11:08:39;;;;;;;;;;;14.00;99.90;;;;;;5050604;28;19909;-69
2021/06/30 11:11:06;;;;;;;;;;;13.90;99.90;;;;;;5051058;28;19992;-69
2021/06/30 11:13:52;;;;;;;;;;;13.90;99.90;;;;;;5050719;28;19929;-69
2021/06/30 11:16:39;;;;;;;;;;;13.80;99.90;;;;;;5050579;28;20000;-69
2021/06/30 11:19:05;;;;;;;;;;;13.80;99.90;;;;;;5040408;28;19913;-69
2021/06/30 11:22:05;;;;;;;;;;;13.80;99.90;;;;;;5050550;28;19917;-69
2021/06/30 11:24:43;;;;;;;;;;;13.80;99.90;;;;;;5017213;28;19909;-69
2021/06/30 11:27:23;;;;;;;;;;;13.80;99.90;;;;;;5050849;28;20008;-69
2021/06/30 11:29:58;;;;;;;;;;;13.80;99.90;;;;;;5050077;28;19913;-69
2021/06/30 11:32:31;;;;;;;;;;;13.70;99.90;;;;;;5050713;28;19978;-68
2021/06/30 11:34:58;;;;;;;;;;;13.70;99.90;;;;;;5050768;28;19944;-70
2021/06/30 11:37:27;;;;;;;;;;;13.70;99.90;;;;;;5050362;28;20378;-69
2021/06/30 11:40:03;;;;;;;;;;;13.70;99.90;;;;;;5050494;28;19932;-69
2021/06/30 11:42:38;;;;;;;;;;;13.70;99.90;;;;;;5049964;28;20023;-70
2021/06/30 11:45:23;;;;;;;;;;;13.70;99.90;;;;;;5050831;28;19909;-70
2021/06/30 11:47:53;;;;;;;;;;;13.60;99.90;;;;;;5050702;28;19944;-70
2021/06/30 11:50:21;;;;;;;;;;;13.60;99.90;;;;;;5050831;28;19920;-69
2021/06/30 11:52:48;;;;;;;;;;;13.60;99.90;;;;;;5050543;28;19909;-69
2021/06/30 11:55:15;;;;;;;;;;;13.60;99.90;;;;;;5050584;28;20386;-70
2021/06/30 11:57:54;;;;;;;;;;;13.60;99.90;;;;;;5050110;28;19909;-69
2021/06/30 12:00:21;;;;;;;;;;;13.70;99.90;;;;;;5050645;28;20382;-69
2021/06/30 12:02:49;;;;;;;;;;;13.70;99.90;;;;;;5050621;28;20331;-69
2021/06/30 12:05:16;;;;;;;;;;;13.70;99.90;;;;;;5050462;28;19956;-69
2021/06/30 12:07:43;;;;;;;;;;;13.60;99.90;;;;;;5049093;28;19913;-69
2021/06/30 12:10:10;;;;;;;;;;;13.60;99.90;;;;;;5048783;28;19928;-69
2021/06/30 12:12:37;;;;;;;;;;;13.60;99.90;;;;;;5050555;28;19913;-68
2021/06/30 12:15:05;;;;;;;;;;;13.60;99.90;;;;;;5050738;28;20055;-69
2021/06/30 12:17:31;;;;;;;;;;;13.60;99.90;;;;;;5051195;28;20065;-69
2021/06/30 12:20:01;;;;;;;;;;;13.60;99.90;;;;;;5054356;28;19912;-69
2021/06/30 12:22:28;;;;;;;;;;;13.60;99.90;;;;;;5054224;28;20381;-69
2021/06/30 12:25:05;;;;;;;;;;;13.50;99.90;;;;;;5054108;28;19947;-69
2021/06/30 12:27:34;;;;;;;;;;;13.50;99.90;;;;;;5053769;28;19916;-69
2021/06/30 12:30:11;;;;;;;;;;;13.50;99.90;;;;;;5053934;28;20566;-69
2021/06/30 12:32:45;;;;;;;;;;;13.50;99.90;;;;;;5054104;28;19913;-70
2021/06/30 12:35:15;;;;;;;;;;;13.40;99.90;;;;;;5053746;28;20373;-70
2021/06/30 12:37:43;;;;;;;;;;;13.40;99.90;;;;;;5053606;28;19915;-69
2021/06/30 12:40:11;;;;;;;;;;;13.30;99.90;;;;;;5053912;28;19920;-70
2021/06/30 12:42:44;;;;;;;;;;;13.30;99.90;;;;;;5053678;28;19927;-69
2021/06/30 12:45:16;;;;;;;;;;;13.20;99.90;;;;;;5053761;28;19913;-69
2021/06/30 12:47:50;;;;;;;;;;;13.20;99.90;;;;;;5053460;28;19928;-69
2021/06/30 12:50:17;;;;;;;;;;;13.20;99.90;;;;;;5053840;28;20399;-69
2021/06/30 12:52:44;;;;;;;;;;;13.20;99.90;;;;;;5053627;28;20359;-69
2021/06/30 12:55:12;;;;;;;;;;;13.20;99.90;;;;;;5053342;28;20338;-69
2021/06/30 12:57:57;;;;;;;;;;;13.20;99.90;;;;;;5053437;28;19913;-69
2021/06/30 13:00:25;;;;;;;;;;;13.20;99.90;;;;;;5053529;28;19992;-69
2021/06/30 13:03:09;;;;;;;;;;;13.20;99.90;;;;;;5053511;28;19916;-69
2021/06/30 13:05:36;;;;;;;;;;;13.30;99.90;;;;;;5053135;28;20367;-69
2021/06/30 13:08:03;;;;;;;;;;;13.30;99.90;;;;;;5052602;28;19928;-69
2021/06/30 13:10:30;;;;;;;;;;;13.30;99.90;;;;;;5053372;28;19916;-69
2021/06/30 13:13:09;;;;;;;;;;;13.30;99.90;;;;;;5052534;28;19913;-69
2021/06/30 13:15:36;;;;;;;;;;;13.30;99.90;;;;;;5052157;28;20474;-69
2021/06/30 13:18:18;;;;;;;;;;;13.30;99.90;;;;;;5052975;28;20566;-69
2021/06/30 13:20:44;;;;;;;;;;;13.30;99.90;;;;;;5053194;28;20367;-69
2021/06/30 13:23:11;;;;;;;;;;;13.30;99.90;;;;;;5052948;28;19921;-69
2021/06/30 13:25:48;;;;;;;;;;;13.30;99.90;;;;;;5052842;28;20412;-69
2021/06/30 13:28:21;;;;;;;;;;;13.30;99.90;;;;;;5052766;28;19963;-69
2021/06/30 13:36:18;;;;;;;;;;;13.50;99.90;;;;;;5052694;28;19931;-68
2021/06/30 13:38:48;;;;;;;;;;;13.50;99.90;;;;;;5052663;28;19913;-69
2021/06/30 13:41:16;;;;;;;;;;;13.60;99.90;;;;;;5052275;28;19913;-68
2021/06/30 13:43:46;;;;;;;;;;;13.50;99.90;;;;;;5051151;28;19924;-69
2021/06/30 13:46:16;;;;;;;;;;;13.50;99.90;;;;;;5052640;28;19932;-68
2021/06/30 13:48:43;;;;;;;;;;;13.60;99.90;;;;;;5052537;28;19919;-70
2021/06/30 13:51:15;;;;;;;;;;;13.60;99.90;;;;;;5052545;28;19940;-69
2021/06/30 13:53:44;;;;;;;;;;;13.50;99.90;;;;;;5051840;28;20377;-69
2021/06/30 13:56:11;;;;;;;;;;;13.40;99.90;;;;;;5052494;28;19909;-69
2021/06/30 13:58:40;;;;;;;;;;;13.40;99.90;;;;;;5052372;28;20028;-69
2021/06/30 14:01:07;;;;;;;;;;;13.40;99.90;;;;;;5052444;28;20000;-70
2021/06/30 14:03:34;;;;;;;;;;;13.40;99.90;;;;;;5052010;28;19925;-69
2021/06/30 14:06:04;;;;;;;;;;;13.40;99.90;;;;;;5052211;28;20374;-70
2021/06/30 14:08:31;;;;;;;;;;;13.40;99.90;;;;;;5052004;28;19971;-69
2021/06/30 14:10:58;;;;;;;;;;;13.40;99.90;;;;;;5052165;28;19912;-69
2021/06/30 14:13:26;;;;;;;;;;;13.30;99.90;;;;;;5052018;28;19924;-69
2021/06/30 14:15:53;;;;;;;;;;;13.40;99.90;;;;;;5051800;28;20072;-69
2021/06/30 14:18:21;;;;;;;;;;;13.40;99.90;;;;;;5052118;28;19909;-69
2021/06/30 14:20:47;;;;;;;;;;;13.30;99.90;;;;;;5051448;28;19995;-69
2021/06/30 14:23:16;;;;;;;;;;;13.30;99.90;;;;;;5051746;28;19960;-69
2021/06/30 14:25:43;;;;;;;;;;;13.30;99.90;;;;;;5050379;28;19997;-69
2021/06/30 14:28:10;;;;;;;;;;;13.20;99.90;;;;;;5051973;28;19913;-69
2021/06/30 14:30:37;;;;;;;;;;;13.20;99.90;;;;;;5051842;28;19927;-69